Terminal Aerodrome Forecast
Issued by NWS

Home | Current Version | Previous Version | Text Only | Print | Product List | Glossary On
Versions: 1 2 3 4 5 6 7 8 9 10 11 12 13 14 15 16 17 18 19 20 21 22 23 24
000
FTPQ31 PGUM 180324 AAI
TAFKMJ
TAF AMD
PKMJ 180324Z 1803/1824 10010KT P6SM VCSH SCT014 SCT045 BKN130
      TEMPO 1803/1805 5SM SHRA SCT014 OVC045=

USA.gov is the U.S. government's official web portal to all federal, state and local government web resources and services.